createdAt,value
2022-11-17T00:02:08.911Z,9.30
2022-11-17T00:04:56.857Z,7.45
2022-11-17T00:07:46.620Z,9.45
2022-11-17T00:10:34.618Z,7.70
2022-11-17T00:16:12.799Z,9.43
2022-11-17T00:19:18.172Z,7.55
2022-11-17T00:22:05.960Z,9.57
2022-11-17T00:24:55.306Z,8.68
2022-11-17T00:27:43.448Z,7.90
2022-11-17T00:30:47.710Z,10.82
2022-11-17T00:33:53.182Z,11.32
2022-11-17T00:36:43.757Z,11.32
2022-11-17T00:39:31.801Z,10.38
2022-11-17T00:42:21.269Z,12.45
2022-11-17T00:45:10.025Z,12.57
2022-11-17T00:47:57.991Z,12.57
2022-11-17T00:50:45.984Z,12.18
2022-11-17T00:53:34.384Z,11.38
2022-11-17T00:56:23.066Z,13.25
2022-11-17T00:59:12.436Z,10.70
2022-11-17T01:02:18.505Z,13.25
2022-11-17T01:05:06.877Z,11.80
2022-11-17T01:07:54.966Z,10.23
2022-11-17T01:10:43.083Z,10.98
2022-11-17T01:17:58.645Z,13.00
2022-11-17T01:20:46.349Z,14.50
2022-11-17T01:23:35.078Z,12.18
2022-11-17T01:26:24.948Z,13.43
2022-11-17T01:29:17.088Z,14.05
2022-11-17T01:32:05.028Z,12.75
2022-11-17T01:34:54.351Z,11.65
2022-11-17T01:37:42.017Z,11.00
2022-11-17T01:40:30.191Z,13.55
2022-11-17T01:43:18.219Z,13.13
2022-11-17T01:46:09.811Z,12.45
2022-11-17T01:49:03.855Z,11.88
2022-11-17T01:54:49.319Z,11.50
2022-11-17T01:57:43.619Z,11.13
2022-11-17T02:00:31.786Z,12.18
2022-11-17T02:04:22.096Z,11.40
2022-11-17T02:07:16.653Z,11.57
2022-11-17T02:10:06.819Z,13.15
2022-11-17T02:12:55.101Z,11.88
2022-11-17T02:15:43.268Z,12.13
2022-11-17T02:18:31.326Z,11.65
2022-11-17T02:21:48.643Z,12.15
2022-11-17T02:25:15.413Z,11.60
2022-11-17T02:28:16.266Z,11.38
2022-11-17T02:31:18.125Z,12.02
2022-11-17T02:34:17.837Z,12.07
2022-11-17T02:37:14.515Z,11.43
2022-11-17T02:40:10.422Z,12.13
2022-11-17T02:43:18.891Z,10.93
2022-11-17T02:46:11.451Z,11.95
2022-11-17T02:49:03.092Z,11.60
2022-11-17T02:51:54.871Z,11.45
2022-11-17T02:54:42.713Z,10.13
2022-11-17T02:57:31.406Z,10.95
2022-11-17T03:00:20.664Z,10.30
2022-11-17T03:03:28.338Z,10.25
2022-11-17T03:06:26.409Z,11.15
2022-11-17T03:09:20.148Z,9.52
2022-11-17T03:12:15.153Z,11.85
2022-11-17T03:15:14.673Z,10.93
2022-11-17T03:18:10.486Z,9.77
2022-11-17T03:21:11.552Z,10.52
2022-11-17T03:24:05.391Z,10.43
2022-11-17T03:26:56.419Z,10.48
2022-11-17T03:29:50.021Z,10.63
2022-11-17T03:32:40.452Z,10.65
2022-11-17T03:35:34.631Z,9.63
2022-11-17T03:38:27.204Z,10.52
2022-11-17T03:41:16.960Z,9.95
2022-11-17T03:44:06.809Z,8.88
2022-11-17T03:46:57.190Z,9.57
2022-11-17T03:49:50.589Z,10.32
2022-11-17T03:52:39.327Z,9.80
2022-11-17T03:55:34.613Z,9.70
2022-11-17T03:58:26.845Z,9.80
2022-11-17T04:01:16.104Z,9.60
2022-11-17T04:04:04.272Z,8.75
2022-11-17T04:06:53.413Z,10.13
2022-11-17T04:09:41.377Z,8.23
2022-11-17T04:12:51.368Z,10.27
2022-11-17T04:15:57.369Z,9.48
2022-11-17T04:18:50.173Z,8.95
2022-11-17T04:21:53.596Z,9.65
2022-11-17T04:24:41.287Z,8.55
2022-11-17T04:28:01.387Z,10.10
2022-11-17T04:30:50.607Z,8.98
2022-11-17T04:33:40.580Z,9.43
2022-11-17T04:36:30.039Z,9.80
2022-11-17T04:39:18.141Z,8.63
2022-11-17T04:42:05.166Z,8.90
2022-11-17T04:44:53.135Z,8.13
2022-11-17T04:47:42.482Z,8.65
2022-11-17T04:50:30.028Z,9.20
2022-11-17T04:53:18.052Z,9.95
2022-11-17T04:56:06.790Z,8.95
2022-11-17T04:58:54.948Z,8.18
2022-11-17T05:01:42.829Z,8.93
2022-11-17T05:04:49.761Z,8.95
2022-11-17T05:07:37.429Z,9.07
2022-11-17T05:10:45.811Z,8.88
2022-11-17T05:13:33.096Z,7.63
2022-11-17T05:16:43.153Z,8.85
2022-11-17T05:19:33.729Z,7.85
2022-11-17T05:22:42.137Z,8.27
2022-11-17T05:25:29.828Z,8.98
2022-11-17T05:29:19.184Z,8.57
2022-11-17T05:32:06.963Z,9.38
2022-11-17T05:34:56.091Z,8.18
2022-11-17T05:37:43.887Z,8.38
2022-11-17T05:40:57.484Z,8.95
2022-11-17T05:46:33.635Z,7.55
2022-11-17T05:49:21.756Z,8.07
2022-11-17T05:52:11.104Z,9.02
2022-11-17T05:54:58.790Z,8.85
2022-11-17T06:06:59.080Z,9.05
2022-11-17T06:09:48.783Z,9.50
2022-11-17T06:12:36.850Z,9.77
2022-11-17T06:15:24.872Z,9.88
2022-11-17T06:18:16.263Z,9.88
2022-11-17T06:21:04.719Z,10.20
2022-11-17T06:23:52.840Z,9.80
2022-11-17T06:26:44.040Z,10.52
2022-11-17T06:29:32.671Z,9.98
2022-11-17T06:32:21.492Z,9.93
2022-11-17T06:35:12.573Z,11.18
2022-11-17T06:38:00.986Z,10.15
2022-11-17T06:40:48.583Z,10.57
2022-11-17T06:43:38.348Z,10.82
2022-11-17T06:46:37.742Z,11.40
2022-11-17T06:49:25.408Z,10.93
2022-11-17T06:52:13.245Z,11.02
2022-11-17T06:55:01.214Z,11.77
2022-11-17T06:57:53.371Z,10.73
2022-11-17T07:00:42.965Z,11.25
2022-11-17T07:03:31.091Z,10.45
2022-11-17T07:06:19.091Z,12.80
2022-11-17T07:09:07.726Z,10.68
2022-11-17T07:11:55.765Z,11.82
2022-11-17T07:14:43.820Z,10.50
2022-11-17T07:17:33.756Z,10.85
2022-11-17T07:20:21.945Z,11.38
2022-11-17T07:23:09.731Z,11.07
2022-11-17T07:25:57.939Z,11.68
2022-11-17T07:28:45.868Z,12.13
2022-11-17T07:31:36.427Z,11.65
2022-11-17T07:34:25.828Z,11.55
2022-11-17T07:37:13.622Z,11.80
2022-11-17T07:40:01.747Z,11.88
2022-11-17T07:42:50.604Z,11.32
2022-11-17T07:45:38.309Z,10.50
2022-11-17T07:48:26.306Z,10.55
2022-11-17T07:51:17.134Z,11.05
2022-11-17T07:54:05.051Z,12.02
2022-11-17T07:56:52.891Z,11.40
2022-11-17T07:59:40.948Z,11.88
2022-11-17T08:02:29.059Z,11.25
2022-11-17T08:05:17.508Z,11.27
2022-11-17T08:08:08.142Z,10.40
2022-11-17T08:10:56.305Z,11.38
2022-11-17T08:13:44.449Z,10.18
2022-11-17T08:16:32.544Z,10.00
2022-11-17T08:19:20.987Z,9.80
2022-11-17T08:22:09.072Z,9.82
2022-11-17T08:25:00.328Z,9.77
2022-11-17T08:27:51.982Z,8.95
2022-11-17T08:30:40.477Z,9.02
2022-11-17T08:33:28.418Z,9.23
2022-11-17T08:36:16.192Z,9.27
2022-11-17T08:39:04.756Z,9.18
2022-11-17T08:41:54.329Z,8.35
2022-11-17T08:44:42.083Z,9.77
2022-11-17T08:47:30.787Z,8.07
2022-11-17T08:50:20.690Z,9.27
2022-11-17T08:53:12.194Z,9.27
2022-11-17T08:55:59.814Z,8.32
2022-11-17T08:58:49.313Z,8.45
2022-11-17T09:01:37.396Z,8.52
2022-11-17T09:04:25.301Z,8.30
2022-11-17T09:07:38.598Z,8.32
2022-11-17T09:10:26.340Z,8.05
2022-11-17T09:13:18.489Z,8.52
2022-11-17T09:16:10.668Z,8.13
2022-11-17T09:18:58.567Z,8.63
2022-11-17T09:21:47.721Z,7.90
2022-11-17T09:24:35.317Z,8.88
2022-11-17T09:27:23.332Z,8.20
2022-11-17T09:30:12.234Z,8.65
2022-11-17T09:33:02.821Z,7.20
2022-11-17T09:35:50.809Z,7.55
2022-11-17T09:38:39.660Z,8.10
2022-11-17T09:41:32.566Z,7.57
2022-11-17T09:44:30.161Z,7.90
2022-11-17T09:47:29.627Z,8.63
2022-11-17T09:50:24.478Z,8.13
2022-11-17T09:53:19.408Z,7.93
2022-11-17T09:56:11.454Z,7.68
2022-11-17T09:59:04.287Z,7.88
2022-11-17T10:01:52.476Z,7.97
2022-11-17T10:04:40.327Z,7.95
2022-11-17T10:07:32.997Z,7.07
2022-11-17T10:10:23.693Z,7.45
2022-11-17T10:13:22.709Z,7.05
2022-11-17T10:16:15.330Z,6.82
2022-11-17T10:19:11.193Z,7.63
2022-11-17T10:22:15.559Z,6.82
2022-11-17T10:25:05.495Z,7.18
2022-11-17T10:27:54.943Z,6.55
2022-11-17T10:30:55.405Z,6.15
2022-11-17T10:33:45.498Z,6.75
2022-11-17T10:36:34.318Z,7.07
2022-11-17T10:39:43.693Z,6.75
2022-11-17T10:42:33.142Z,6.32
2022-11-17T10:45:21.398Z,5.90
2022-11-17T10:48:11.726Z,5.30
2022-11-17T10:51:12.251Z,5.07
2022-11-17T10:54:06.125Z,4.30
2022-11-17T10:56:58.546Z,4.90
2022-11-17T10:59:56.714Z,4.82
2022-11-17T11:02:45.337Z,4.70
2022-11-17T11:05:33.331Z,4.97
2022-11-17T11:08:25.139Z,4.32
2022-11-17T11:11:34.875Z,3.95
2022-11-17T11:14:32.359Z,4.22
2022-11-17T11:17:22.002Z,4.72
2022-11-17T11:20:15.557Z,3.92
2022-11-17T11:23:10.537Z,4.40
2022-11-17T11:26:29.323Z,4.13
2022-11-17T11:29:27.322Z,4.10
2022-11-17T11:32:30.373Z,3.95
2022-11-17T11:36:30.539Z,4.32
2022-11-17T11:39:21.758Z,4.15
2022-11-17T11:42:25.661Z,4.05
2022-11-17T11:45:42.650Z,4.00
2022-11-17T11:52:14.282Z,3.13
2022-11-17T11:55:06.669Z,3.40
2022-11-17T11:58:01.855Z,3.47
2022-11-17T12:00:53.374Z,3.78
2022-11-17T12:03:55.659Z,3.40
2022-11-17T12:06:53.871Z,2.95
2022-11-17T12:09:50.756Z,2.55
2022-11-17T12:12:40.872Z,2.70
2022-11-17T12:15:38.783Z,2.60
2022-11-17T12:18:34.123Z,2.40
2022-11-17T12:21:26.094Z,2.75
2022-11-17T12:24:19.114Z,2.92
2022-11-17T12:30:47.555Z,2.58
2022-11-17T12:34:11.792Z,3.00
2022-11-17T12:37:22.914Z,2.53
2022-11-17T12:40:44.327Z,2.70
2022-11-17T12:43:34.203Z,2.92
2022-11-17T12:46:34.311Z,3.28
2022-11-17T12:49:32.957Z,2.90
2022-11-17T12:52:30.991Z,3.45
2022-11-17T12:55:25.709Z,2.70
2022-11-17T12:58:21.700Z,3.00
2022-11-17T13:01:14.936Z,3.30
2022-11-17T13:04:08.481Z,2.33
2022-11-17T13:09:52.802Z,1.90
2022-11-17T13:12:40.749Z,1.80
2022-11-17T13:15:28.744Z,1.67
2022-11-17T13:18:26.966Z,1.73
2022-11-17T13:21:29.848Z,1.60
2022-11-17T13:24:31.158Z,1.65
2022-11-17T13:27:28.156Z,1.90
2022-11-17T13:30:17.092Z,1.73
2022-11-17T13:33:11.657Z,1.67
2022-11-17T13:36:17.393Z,2.13
2022-11-17T13:39:05.513Z,2.10
2022-11-17T13:41:53.828Z,2.30
2022-11-17T13:44:42.785Z,3.03
2022-11-17T13:47:45.550Z,2.42
2022-11-17T13:50:39.478Z,2.30
2022-11-17T13:53:28.390Z,2.10
2022-11-17T13:56:35.058Z,2.28
2022-11-17T13:59:27.932Z,1.90
2022-11-17T14:05:25.340Z,1.92
2022-11-17T14:08:23.584Z,3.70
2022-11-17T14:11:22.519Z,4.32
2022-11-17T14:14:14.598Z,3.45
2022-11-17T14:17:13.574Z,3.33
2022-11-17T14:20:30.863Z,5.03
2022-11-17T14:23:19.564Z,11.05
2022-11-17T14:26:17.521Z,4.25
2022-11-17T14:29:05.488Z,1.90
2022-11-17T14:31:53.459Z,2.30
2022-11-17T14:34:41.516Z,1.80
2022-11-17T14:37:33.439Z,1.80
2022-11-17T14:40:21.682Z,1.70
2022-11-17T14:43:09.205Z,2.40
2022-11-17T14:45:57.172Z,1.80
2022-11-17T14:48:45.334Z,2.00
2022-11-17T14:51:33.767Z,1.75
2022-11-17T14:54:23.093Z,2.15
2022-11-17T14:57:10.637Z,1.80
2022-11-17T14:59:58.640Z,1.70
2022-11-17T15:02:47.158Z,1.85
2022-11-17T15:05:35.341Z,1.80
2022-11-17T15:08:23.244Z,1.60
2022-11-17T15:11:17.222Z,1.75
2022-11-17T15:14:05.859Z,1.98
2022-11-17T15:16:53.623Z,1.80
2022-11-17T15:19:41.560Z,1.50
2022-11-17T15:22:29.600Z,2.00
2022-11-17T15:25:17.248Z,1.83
2022-11-17T15:28:06.784Z,1.73
2022-11-17T15:30:54.540Z,1.80
2022-11-17T15:33:43.715Z,2.10
2022-11-17T15:36:32.823Z,1.90
2022-11-17T15:39:21.180Z,2.35
2022-11-17T15:42:09.374Z,2.78
2022-11-17T15:44:58.721Z,2.90
2022-11-17T15:47:46.795Z,2.30
2022-11-17T15:50:34.670Z,2.38
2022-11-17T15:53:22.592Z,2.55
2022-11-17T15:56:13.009Z,3.20
2022-11-17T15:59:03.166Z,2.15
2022-11-17T16:01:52.417Z,2.38
2022-11-17T16:04:40.887Z,3.42
2022-11-17T16:07:28.629Z,5.22
2022-11-17T16:10:19.715Z,6.28
2022-11-17T16:13:07.784Z,7.72
2022-11-17T16:15:56.373Z,8.82
2022-11-17T16:18:45.688Z,8.30
2022-11-17T16:21:33.863Z,7.25
2022-11-17T16:24:21.929Z,7.07
2022-11-17T16:27:13.233Z,6.53
2022-11-17T16:30:01.693Z,7.15
2022-11-17T16:32:49.683Z,6.80
2022-11-17T16:35:39.182Z,6.25
2022-11-17T16:38:27.119Z,5.55
2022-11-17T16:41:15.138Z,1.63
2022-11-17T16:44:04.441Z,4.75
2022-11-17T16:46:52.323Z,3.45
2022-11-17T16:49:40.085Z,4.78
2022-11-17T16:52:29.361Z,4.18
2022-11-17T16:55:17.147Z,3.85
2022-11-17T16:58:05.955Z,4.20
2022-11-17T17:00:53.593Z,4.40
2022-11-17T17:03:42.687Z,3.90
2022-11-17T17:06:31.343Z,4.20
2022-11-17T17:09:27.516Z,4.38
2022-11-17T17:12:15.736Z,4.43
2022-11-17T17:15:04.694Z,3.75
2022-11-17T17:17:52.769Z,3.13
2022-11-17T17:20:40.676Z,4.22
2022-11-17T17:23:29.544Z,3.53
2022-11-17T17:26:20.273Z,3.53
2022-11-17T17:29:09.447Z,3.50
2022-11-17T17:31:57.123Z,3.97
2022-11-17T17:34:45.128Z,3.80
2022-11-17T17:37:34.145Z,4.05
2022-11-17T17:40:21.879Z,3.35
2022-11-17T17:43:11.432Z,3.05
2022-11-17T17:46:01.427Z,3.38
2022-11-17T17:48:49.336Z,6.10
2022-11-17T17:51:40.024Z,4.50
2022-11-17T17:54:28.052Z,4.50
2022-11-17T17:57:16.112Z,3.50
2022-11-17T18:00:06.952Z,3.83
2022-11-17T18:02:55.879Z,4.32
2022-11-17T18:05:43.741Z,3.80
2022-11-17T18:08:33.903Z,3.67
2022-11-17T18:11:22.369Z,3.67
2022-11-17T18:14:12.063Z,3.70
2022-11-17T18:17:01.106Z,3.20
2022-11-17T18:19:48.703Z,4.30
2022-11-17T18:22:38.181Z,4.57
2022-11-17T18:25:25.976Z,5.05
2022-11-17T18:28:14.086Z,4.93
2022-11-17T18:31:03.467Z,5.72
2022-11-17T18:33:54.340Z,4.47
2022-11-17T18:36:42.169Z,4.50
2022-11-17T18:39:31.568Z,3.78
2022-11-17T18:42:19.624Z,3.97
2022-11-17T18:45:08.347Z,4.15
2022-11-17T18:47:56.266Z,3.83
2022-11-17T18:51:17.379Z,3.30
2022-11-17T18:53:56.752Z,3.90
2022-11-17T18:56:45.280Z,3.67
2022-11-17T18:59:33.554Z,3.40
2022-11-17T19:02:21.283Z,6.68
2022-11-17T19:05:09.693Z,3.83
2022-11-17T19:07:58.905Z,3.58
2022-11-17T19:10:53.843Z,3.97
2022-11-17T19:13:42.781Z,3.65
2022-11-17T19:16:31.820Z,3.55
2022-11-17T19:19:19.785Z,3.70
2022-11-17T19:22:08.303Z,3.95
2022-11-17T19:24:57.636Z,4.32
2022-11-17T19:27:45.481Z,4.35
2022-11-17T19:30:33.959Z,5.10
2022-11-17T19:33:21.676Z,12.88
2022-11-17T19:36:12.476Z,8.82
2022-11-17T19:39:02.237Z,6.45
2022-11-17T19:41:51.297Z,5.60
2022-11-17T19:44:39.157Z,5.13
2022-11-17T19:47:27.523Z,5.07
2022-11-17T19:50:15.620Z,4.85
2022-11-17T19:53:03.548Z,4.97
2022-11-17T19:55:51.614Z,4.97
2022-11-17T19:58:41.562Z,5.10
2022-11-17T20:01:30.852Z,4.70
2022-11-17T20:04:19.811Z,4.35
2022-11-17T20:07:10.337Z,4.95
2022-11-17T20:09:58.250Z,4.63
2022-11-17T20:12:49.113Z,4.28
2022-11-17T20:15:38.931Z,4.50
2022-11-17T20:18:30.396Z,4.45
2022-11-17T20:21:19.646Z,3.90
2022-11-17T20:24:08.318Z,4.38
2022-11-17T20:26:56.533Z,4.55
2022-11-17T20:29:45.262Z,4.22
2022-11-17T20:32:35.764Z,4.82
2022-11-17T20:35:23.614Z,8.05
2022-11-17T20:38:15.644Z,7.72
2022-11-17T20:41:05.835Z,5.50
2022-11-17T20:43:55.406Z,5.30
2022-11-17T20:46:43.454Z,4.95
2022-11-17T20:49:32.979Z,6.75
2022-11-17T20:52:21.122Z,6.50
2022-11-17T20:55:09.833Z,6.70
2022-11-17T20:57:57.654Z,6.00
2022-11-17T21:00:45.684Z,5.43
2022-11-17T21:03:33.829Z,4.90
2022-11-17T21:06:24.320Z,5.05
2022-11-17T21:09:12.532Z,4.90
2022-11-17T21:12:02.051Z,5.20
2022-11-17T21:14:50.078Z,4.75
2022-11-17T21:17:55.447Z,4.93
2022-11-17T21:20:43.302Z,4.38
2022-11-17T21:23:32.556Z,5.22
2022-11-17T21:26:25.659Z,6.63
2022-11-17T21:29:13.533Z,7.25
2022-11-17T21:32:01.824Z,6.72
2022-11-17T21:34:49.981Z,6.82
2022-11-17T21:37:38.016Z,6.10
2022-11-17T21:40:27.416Z,6.57
2022-11-17T21:43:15.537Z,6.00
2022-11-17T21:46:04.250Z,5.03
2022-11-17T21:49:14.288Z,5.18
2022-11-17T21:52:02.505Z,4.70
2022-11-17T21:54:50.518Z,4.78
2022-11-17T21:57:40.024Z,4.35
2022-11-17T22:00:29.541Z,5.10
2022-11-17T22:03:17.476Z,4.80
2022-11-17T22:06:09.816Z,4.95
2022-11-17T22:08:59.357Z,4.28
2022-11-17T22:11:46.966Z,4.32
2022-11-17T22:14:36.464Z,4.55
2022-11-17T22:17:24.666Z,3.85
2022-11-17T22:20:12.463Z,3.70
2022-11-17T22:23:00.436Z,4.90
2022-11-17T22:25:55.593Z,3.80
2022-11-17T22:28:43.139Z,3.92
2022-11-17T22:31:32.613Z,4.20
2022-11-17T22:34:20.722Z,3.90
2022-11-17T22:37:08.727Z,4.40
2022-11-17T22:39:56.683Z,4.65
2022-11-17T22:42:44.325Z,4.28
2022-11-17T22:45:32.346Z,3.97
2022-11-17T22:48:21.673Z,3.83
2022-11-17T22:51:10.426Z,4.50
2022-11-17T22:53:58.411Z,3.70
2022-11-17T22:56:46.601Z,4.28
2022-11-17T22:59:37.689Z,4.00
2022-11-17T23:02:25.514Z,4.07
2022-11-17T23:05:14.954Z,4.68
2022-11-17T23:08:08.225Z,3.65
2022-11-17T23:11:29.500Z,4.13
2022-11-17T23:14:13.174Z,3.88
2022-11-17T23:17:01.082Z,3.58
2022-11-17T23:19:49.426Z,3.35
2022-11-17T23:22:38.613Z,3.80
2022-11-17T23:25:26.269Z,3.70
2022-11-17T23:28:16.248Z,3.60
2022-11-17T23:31:06.107Z,3.40
2022-11-17T23:33:54.176Z,3.78
2022-11-17T23:36:41.856Z,3.50
2022-11-17T23:39:31.197Z,3.45
2022-11-17T23:42:18.826Z,3.03
2022-11-17T23:45:08.028Z,3.42
2022-11-17T23:47:55.901Z,3.47
2022-11-17T23:50:43.776Z,3.42
2022-11-17T23:53:31.985Z,3.20
2022-11-17T23:56:21.663Z,3.67
2022-11-17T23:59:09.861Z,3.70
